Time;durP1;ratioP1;P1;durP2;ratioP2;P2;SDS_P1;SDS_P2;PMS_P1;PMS_P2;Temp;Humidity;BMP_temperature;BMP_pressure;BME280_temperature;BME280_humidity;BME280_pressure;Samples;Min_cycle;Max_cycle;Signal;HPM_P1;HPM_P2
2023/08/07 00:00:35;;;;;;;11.15;3.58;;;15.20;99.90;;;;;;4803816;29;20034;-52
2023/08/07 00:03:02;;;;;;;11.80;3.53;;;14.80;99.90;;;;;;4802785;29;20050;-53
2023/08/07 00:05:28;;;;;;;11.52;2.90;;;14.90;99.90;;;;;;4803649;29;20077;-50
2023/08/07 00:07:53;;;;;;;13.90;4.00;;;15.00;99.90;;;;;;4786736;29;20082;-50
2023/08/07 00:10:19;;;;;;;10.63;3.53;;;14.90;99.90;;;;;;4803729;29;20050;-52
2023/08/07 00:12:45;;;;;;;10.75;2.78;;;15.10;99.90;;;;;;4803736;29;20130;-51
2023/08/07 00:15:11;;;;;;;12.38;3.78;;;15.20;99.90;;;;;;4803823;29;20526;-49
2023/08/07 00:17:37;;;;;;;17.17;2.97;;;14.90;99.90;;;;;;4803821;29;20050;-52
2023/08/07 00:20:04;;;;;;;13.60;3.50;;;14.90;99.90;;;;;;4803752;29;20137;-52
2023/08/07 00:22:30;;;;;;;16.38;3.13;;;15.00;99.90;;;;;;4803684;29;20085;-52
2023/08/07 00:24:56;;;;;;;14.82;4.50;;;14.90;99.90;;;;;;4803560;29;20074;-52
2023/08/07 00:27:21;;;;;;;15.10;3.78;;;15.20;99.90;;;;;;4803700;29;20047;-52
2023/08/07 00:29:47;;;;;;;16.67;3.22;;;15.10;99.90;;;;;;4802434;29;20043;-48
2023/08/07 00:32:13;;;;;;;14.23;4.13;;;15.00;99.90;;;;;;4803596;29;20043;-50
2023/08/07 00:34:38;;;;;;;12.70;3.92;;;15.30;99.90;;;;;;4801677;29;20527;-51
2023/08/07 00:37:05;;;;;;;15.95;3.85;;;14.90;99.90;;;;;;4803577;29;20051;-52
2023/08/07 00:39:30;;;;;;;19.05;4.30;;;15.00;99.90;;;;;;4804354;29;20099;-53
2023/08/07 00:41:56;;;;;;;15.23;4.22;;;15.00;99.90;;;;;;4805510;29;20063;-50
2023/08/07 00:44:23;;;;;;;18.08;4.60;;;15.00;99.90;;;;;;4807192;29;20446;-49
2023/08/07 00:46:49;;;;;;;11.90;3.90;;;15.30;99.90;;;;;;4805142;29;20043;-52
2023/08/07 00:49:16;;;;;;;15.02;4.32;;;15.00;99.90;;;;;;4807081;29;20051;-51
2023/08/07 00:51:41;;;;;;;13.20;4.15;;;15.10;99.90;;;;;;4805283;29;20050;-49
2023/08/07 00:54:10;;;;;;;14.18;3.47;;;15.00;99.90;;;;;;4806515;29;20053;-51
2023/08/07 00:56:37;;;;;;;14.18;3.55;;;15.10;99.90;;;;;;4806705;29;20055;-50
2023/08/07 00:59:03;;;;;;;13.00;3.58;;;14.90;99.90;;;;;;4806108;29;20059;-52
2023/08/07 01:01:29;;;;;;;12.40;4.60;;;15.30;99.90;;;;;;4806596;29;20051;-50
2023/08/07 01:03:55;;;;;;;11.52;4.25;;;15.20;99.90;;;;;;4806245;29;20037;-50
2023/08/07 01:06:20;;;;;;;9.70;3.72;;;15.10;99.90;;;;;;4805676;29;20042;-48
2023/08/07 01:08:47;;;;;;;8.07;3.85;;;15.10;99.90;;;;;;4806618;29;20093;-49
2023/08/07 01:11:28;;;;;;;10.07;3.45;;;15.20;99.90;;;;;;4805006;29;20142;-51
2023/08/07 01:14:18;;;;;;;8.95;3.28;;;14.90;99.90;;;;;;4806630;29;20074;-50
2023/08/07 01:17:05;;;;;;;9.48;3.03;;;14.90;99.90;;;;;;4806369;29;20085;-53
2023/08/07 01:19:33;;;;;;;9.45;2.63;;;14.90;99.90;;;;;;4806186;29;20051;-51
2023/08/07 01:22:12;;;;;;;8.65;2.50;;;15.10;99.90;;;;;;4805997;29;20078;-50
2023/08/07 01:24:40;;;;;;;9.52;2.20;;;15.10;99.90;;;;;;4805268;29;20487;-52
2023/08/07 01:27:18;;;;;;;10.52;2.58;;;14.80;99.90;;;;;;4805864;29;20415;-48
2023/08/07 01:30:07;;;;;;;8.23;1.83;;;15.00;99.90;;;;;;4804803;29;20050;-49
2023/08/07 01:32:36;;;;;;;10.45;1.90;;;14.80;99.90;;;;;;4806426;29;20047;-50
2023/08/07 01:35:05;;;;;;;12.13;2.63;;;14.70;99.90;;;;;;4805370;29;20054;-49
2023/08/07 01:37:34;;;;;;;11.18;1.60;;;14.70;99.90;;;;;;4806140;29;20050;-53
2023/08/07 01:40:03;;;;;;;11.27;3.08;;;14.80;99.90;;;;;;4805616;29;20108;-52
2023/08/07 01:42:30;;;;;;;9.57;2.38;;;14.80;99.90;;;;;;4805610;29;20058;-52
2023/08/07 01:44:55;;;;;;;11.20;2.60;;;15.00;99.90;;;;;;4805543;29;20518;-52
2023/08/07 01:47:21;;;;;;;10.30;3.13;;;15.00;99.90;;;;;;4805699;29;20081;-51
2023/08/07 01:49:47;;;;;;;13.55;2.25;;;14.70;99.90;;;;;;4805392;29;20095;-51
2023/08/07 01:52:13;;;;;;;13.57;2.70;;;14.90;99.90;;;;;;4804315;29;20050;-50
2023/08/07 01:54:38;;;;;;;10.27;2.33;;;14.80;99.90;;;;;;4805756;29;20125;-52
2023/08/07 01:57:04;;;;;;;8.77;2.45;;;14.90;99.90;;;;;;4804133;29;20365;-50
2023/08/07 01:59:30;;;;;;;6.28;2.13;;;15.00;99.90;;;;;;4803982;29;20394;-50
2023/08/07 02:01:56;;;;;;;10.23;1.63;;;14.80;99.90;;;;;;4804211;29;20034;-50
2023/08/07 02:04:21;;;;;;;8.85;2.17;;;14.80;99.90;;;;;;4803999;29;20108;-51
2023/08/07 02:06:47;;;;;;;7.38;1.90;;;14.90;99.90;;;;;;4803101;29;20046;-53
2023/08/07 02:09:13;;;;;;;8.90;2.10;;;15.10;99.90;;;;;;4805296;29;20047;-50
2023/08/07 02:11:38;;;;;;;9.15;2.00;;;15.00;99.90;;;;;;4803863;29;20057;-52
2023/08/07 02:14:04;;;;;;;6.13;1.80;;;14.90;99.90;;;;;;4805641;29;20129;-50
2023/08/07 02:16:30;;;;;;;11.43;2.15;;;14.80;99.90;;;;;;4819204;29;20042;-52
2023/08/07 02:18:55;;;;;;;7.93;1.23;;;15.00;99.90;;;;;;4803727;29;20485;-52
2023/08/07 02:21:21;;;;;;;9.77;2.25;;;15.00;99.90;;;;;;4805414;29;20050;-53
2023/08/07 02:23:47;;;;;;;9.60;2.03;;;14.90;99.90;;;;;;4805455;29;20042;-50
2023/08/07 02:26:13;;;;;;;6.18;1.40;;;14.90;99.90;;;;;;4805130;29;20464;-48
2023/08/07 02:28:39;;;;;;;7.28;1.65;;;14.90;99.90;;;;;;4804966;29;20069;-53
2023/08/07 02:31:04;;;;;;;11.30;2.28;;;14.70;99.90;;;;;;4804986;29;20053;-50
2023/08/07 02:33:30;;;;;;;8.45;2.00;;;14.70;99.90;;;;;;4805010;29;20046;-51
2023/08/07 02:35:56;;;;;;;10.82;2.20;;;15.00;99.90;;;;;;4803170;29;20139;-53
2023/08/07 02:38:22;;;;;;;9.02;2.20;;;15.00;99.90;;;;;;4804903;29;20050;-52
2023/08/07 02:40:48;;;;;;;9.30;2.40;;;15.00;99.90;;;;;;4803466;29;20514;-52
2023/08/07 02:43:13;;;;;;;8.70;2.60;;;14.80;99.90;;;;;;4803314;29;20054;-50
2023/08/07 02:45:39;;;;;;;9.23;2.40;;;14.80;99.90;;;;;;4803860;29;20042;-49
2023/08/07 02:48:05;;;;;;;13.38;2.38;;;14.80;99.90;;;;;;4804664;29;20056;-50
2023/08/07 02:50:32;;;;;;;10.63;2.67;;;14.80;99.90;;;;;;4804933;29;20107;-50
2023/08/07 02:53:00;;;;;;;9.82;2.80;;;14.90;99.90;;;;;;4804443;29;20047;-52
2023/08/07 02:55:26;;;;;;;9.30;1.80;;;14.70;99.90;;;;;;4803651;29;20039;-50
2023/08/07 02:57:52;;;;;;;12.60;3.22;;;14.50;99.90;;;;;;4804287;29;20121;-49
2023/08/07 03:00:18;;;;;;;15.00;2.22;;;14.80;99.90;;;;;;4804425;29;20086;-50
2023/08/07 03:02:43;;;;;;;10.32;2.90;;;14.50;99.90;;;;;;4803852;29;20046;-48
2023/08/07 03:05:09;;;;;;;14.82;3.47;;;14.60;99.90;;;;;;4804126;29;20180;-54
2023/08/07 03:07:35;;;;;;;12.95;3.25;;;14.90;99.90;;;;;;4787914;29;20049;-50
2023/08/07 03:10:01;;;;;;;11.50;3.35;;;14.60;99.90;;;;;;4804614;29;20129;-50
2023/08/07 03:12:26;;;;;;;17.77;2.97;;;14.60;99.90;;;;;;4802867;29;20054;-50
2023/08/07 03:14:52;;;;;;;15.00;4.25;;;14.80;99.90;;;;;;4804449;29;20462;-49
2023/08/07 03:17:18;;;;;;;11.27;2.92;;;14.80;99.90;;;;;;4804439;29;20038;-50
2023/08/07 03:19:43;;;;;;;15.90;3.78;;;14.70;99.90;;;;;;4804182;29;20434;-52
2023/08/07 03:22:09;;;;;;;17.40;3.72;;;14.60;99.90;;;;;;4803948;29;20043;-50
2023/08/07 03:24:35;;;;;;;14.45;2.80;;;14.70;99.90;;;;;;4804158;29;20087;-51
2023/08/07 03:27:01;;;;;;;14.27;3.90;;;14.80;99.90;;;;;;4804125;29;20054;-48
2023/08/07 03:29:26;;;;;;;13.35;4.13;;;14.90;99.90;;;;;;4804383;29;20121;-50
2023/08/07 03:31:52;;;;;;;17.15;3.33;;;14.60;99.90;;;;;;4803977;29;20426;-50
2023/08/07 03:34:18;;;;;;;18.30;2.88;;;14.60;99.90;;;;;;4803669;29;20176;-50
2023/08/07 03:36:45;;;;;;;18.25;4.43;;;14.70;99.90;;;;;;4803325;29;20054;-52
2023/08/07 03:39:12;;;;;;;16.98;4.45;;;15.00;99.90;;;;;;4804124;29;20050;-52
2023/08/07 03:41:38;;;;;;;17.55;3.95;;;14.90;99.90;;;;;;4803433;29;20058;-50
2023/08/07 03:44:04;;;;;;;19.98;4.53;;;14.80;99.90;;;;;;4803851;29;20047;-52
2023/08/07 03:46:29;;;;;;;18.40;4.07;;;14.60;99.90;;;;;;4803636;29;20058;-53
2023/08/07 03:48:55;;;;;;;18.58;4.18;;;14.70;99.90;;;;;;4803960;29;20458;-50
2023/08/07 03:51:20;;;;;;;14.20;2.42;;;14.60;99.90;;;;;;4804175;29;20053;-52
2023/08/07 03:53:46;;;;;;;17.80;3.38;;;14.60;99.90;;;;;;4804059;29;20093;-49
2023/08/07 03:56:12;;;;;;;9.63;2.40;;;14.80;99.90;;;;;;4803946;29;20403;-49
2023/08/07 03:58:38;;;;;;;5.68;1.60;;;14.80;99.90;;;;;;4803610;29;20039;-51
2023/08/07 04:01:03;;;;;;;10.05;2.58;;;14.60;99.90;;;;;;4803839;29;21291;-49
2023/08/07 04:03:29;;;;;;;10.20;2.35;;;14.40;99.90;;;;;;4802507;29;20493;-50
2023/08/07 04:05:55;;;;;;;7.50;1.85;;;14.50;99.90;;;;;;4803490;29;20035;-51
2023/08/07 04:08:22;;;;;;;14.57;2.55;;;14.60;99.90;;;;;;4803788;29;20039;-51
2023/08/07 04:11:02;;;;;;;11.18;3.40;;;14.40;99.90;;;;;;4802638;29;20081;-52
2023/08/07 04:13:28;;;;;;;13.95;2.60;;;14.60;99.90;;;;;;4804681;29;20454;-52
2023/08/07 04:15:54;;;;;;;10.90;3.45;;;14.30;99.90;;;;;;4807149;29;20043;-52
2023/08/07 04:18:20;;;;;;;12.82;4.05;;;14.40;99.90;;;;;;4806537;29;20149;-46
2023/08/07 04:21:04;;;;;;;16.92;4.00;;;14.50;99.90;;;;;;4807460;29;20110;-47
2023/08/07 04:23:31;;;;;;;13.52;4.13;;;14.40;99.90;;;;;;4807399;29;20339;-48
2023/08/07 04:25:57;;;;;;;12.85;4.43;;;14.70;99.90;;;;;;4805797;29;20093;-49
2023/08/07 04:28:23;;;;;;;15.05;4.43;;;14.40;99.90;;;;;;4807227;29;20085;-51
2023/08/07 04:30:50;;;;;;;13.32;4.88;;;14.60;99.90;;;;;;4807310;29;20050;-52
2023/08/07 04:33:16;;;;;;;11.73;4.38;;;14.80;99.90;;;;;;4807226;29;20496;-53
2023/08/07 04:35:42;;;;;;;13.55;4.80;;;14.80;99.90;;;;;;4806589;29;20043;-52
2023/08/07 04:38:08;;;;;;;12.93;3.30;;;14.60;99.90;;;;;;4805786;29;20440;-52
2023/08/07 04:40:34;;;;;;;12.32;3.92;;;14.80;99.90;;;;;;4807099;29;20047;-48
2023/08/07 04:43:01;;;;;;;17.88;4.22;;;14.50;99.90;;;;;;4806734;29;20151;-50
2023/08/07 04:45:27;;;;;;;14.38;3.40;;;14.50;99.90;;;;;;4806660;29;20054;-49
2023/08/07 04:47:53;;;;;;;15.30;5.00;;;14.80;99.90;;;;;;4806744;29;20043;-51
2023/08/07 04:50:18;;;;;;;17.65;4.75;;;14.70;99.90;;;;;;4790192;29;20072;-49
2023/08/07 04:52:44;;;;;;;18.38;4.40;;;14.60;99.90;;;;;;4807009;29;20043;-47
2023/08/07 04:55:10;;;;;;;18.60;5.50;;;14.90;99.90;;;;;;4806585;29;20531;-51
2023/08/07 04:57:36;;;;;;;17.50;4.90;;;15.00;99.90;;;;;;4806975;29;20035;-51
2023/08/07 05:00:01;;;;;;;18.15;3.78;;;14.80;99.90;;;;;;4806615;29;20364;-53
2023/08/07 05:02:27;;;;;;;14.25;4.40;;;15.00;99.90;;;;;;4806779;29;20078;-51
2023/08/07 05:04:53;;;;;;;13.85;4.55;;;14.70;99.90;;;;;;4804775;29;20281;-52
2023/08/07 05:07:18;;;;;;;11.05;3.97;;;15.00;99.90;;;;;;4806127;29;20082;-52
2023/08/07 05:09:44;;;;;;;9.85;3.65;;;14.80;99.90;;;;;;4806332;29;20042;-52
2023/08/07 05:12:10;;;;;;;11.23;3.85;;;15.00;99.90;;;;;;4806365;29;20108;-51
2023/08/07 05:14:35;;;;;;;11.38;3.88;;;15.00;99.90;;;;;;4806474;29;20050;-52
2023/08/07 05:17:01;;;;;;;13.98;4.18;;;14.70;99.90;;;;;;4806371;29;20049;-51
2023/08/07 05:19:27;;;;;;;15.15;4.53;;;15.10;99.90;;;;;;4806497;29;20055;-50
2023/08/07 05:21:52;;;;;;;16.95;4.30;;;15.00;99.90;;;;;;4804665;29;20428;-50
2023/08/07 05:24:18;;;;;;;13.57;2.88;;;14.70;99.90;;;;;;4805919;29;20057;-49
2023/08/07 05:26:44;;;;;;;17.92;3.47;;;14.60;99.90;;;;;;4805450;29;20047;-50
2023/08/07 05:29:10;;;;;;;16.98;4.55;;;14.80;99.90;;;;;;4805896;29;20141;-51
2023/08/07 05:31:36;;;;;;;15.70;3.33;;;14.60;99.90;;;;;;4806226;29;20117;-50
2023/08/07 05:34:02;;;;;;;11.98;4.10;;;14.60;99.90;;;;;;4806021;29;20042;-49
2023/08/07 05:36:28;;;;;;;17.35;3.97;;;14.50;99.90;;;;;;4804351;29;20047;-53
2023/08/07 05:38:54;;;;;;;11.93;3.88;;;14.50;99.90;;;;;;4805996;29;20091;-52
2023/08/07 05:41:20;;;;;;;14.75;4.28;;;14.90;99.90;;;;;;4804134;29;20086;-49
2023/08/07 05:43:46;;;;;;;13.82;3.92;;;14.60;99.90;;;;;;4805900;29;20047;-50
2023/08/07 05:46:11;;;;;;;13.90;4.10;;;14.80;99.90;;;;;;4803602;29;20043;-50
2023/08/07 05:48:37;;;;;;;15.80;4.03;;;14.80;99.90;;;;;;4805304;29;20460;-49
2023/08/07 05:51:03;;;;;;;15.25;3.80;;;15.00;99.90;;;;;;4803311;29;20050;-52
2023/08/07 05:53:29;;;;;;;15.38;4.00;;;15.10;99.90;;;;;;4805142;29;20043;-51
2023/08/07 05:55:55;;;;;;;13.85;4.65;;;15.00;99.90;;;;;;4805470;29;20484;-54
2023/08/07 05:58:21;;;;;;;16.10;4.50;;;15.40;99.90;;;;;;4805721;29;20051;-54
2023/08/07 06:00:47;;;;;;;13.20;4.50;;;15.20;99.90;;;;;;4805983;29;20391;-50
2023/08/07 06:03:12;;;;;;;12.57;4.18;;;15.20;99.90;;;;;;4805552;29;20135;-50
2023/08/07 06:05:38;;;;;;;11.68;3.75;;;15.20;99.90;;;;;;4803761;29;20047;-51
2023/08/07 06:08:04;;;;;;;11.48;3.95;;;15.00;99.90;;;;;;4805640;29;20035;-50
2023/08/07 06:10:30;;;;;;;13.25;4.10;;;15.20;99.90;;;;;;4805392;29;20054;-51
2023/08/07 06:12:56;;;;;;;12.45;3.92;;;15.00;99.90;;;;;;4805456;29;20508;-51
2023/08/07 06:15:21;;;;;;;15.27;3.33;;;15.10;99.90;;;;;;4805225;29;20038;-49
2023/08/07 06:17:47;;;;;;;12.40;3.38;;;15.10;99.90;;;;;;4802767;29;20047;-52
2023/08/07 06:20:15;;;;;;;16.60;4.88;;;15.00;99.90;;;;;;4805193;29;20078;-53
2023/08/07 06:22:41;;;;;;;15.70;4.53;;;15.10;99.90;;;;;;4805182;29;20101;-48
2023/08/07 06:25:08;;;;;;;14.52;4.22;;;15.10;99.90;;;;;;4788835;29;20054;-52
2023/08/07 06:27:34;;;;;;;16.15;3.38;;;14.90;99.90;;;;;;4805168;29;20046;-54
2023/08/07 06:29:59;;;;;;;13.27;3.92;;;15.00;99.90;;;;;;4805263;29;20141;-52
2023/08/07 06:32:26;;;;;;;12.80;3.97;;;15.00;99.90;;;;;;4805082;29;20050;-53
2023/08/07 06:34:52;;;;;;;13.00;3.05;;;15.20;99.90;;;;;;4803480;29;20492;-50
2023/08/07 06:37:18;;;;;;;10.38;3.00;;;15.20;99.90;;;;;;4803706;29;20050;-53
2023/08/07 06:39:46;;;;;;;12.45;4.10;;;15.10;99.90;;;;;;4805000;29;20381;-50
2023/08/07 06:42:12;;;;;;;11.93;3.53;;;15.20;99.90;;;;;;4803569;29;20070;-52
2023/08/07 06:44:37;;;;;;;11.52;3.35;;;15.20;99.90;;;;;;4800910;29;20053;-50
2023/08/07 06:47:03;;;;;;;14.85;3.20;;;15.20;99.90;;;;;;4804924;29;20058;-52
2023/08/07 06:49:31;;;;;;;15.57;3.33;;;15.20;99.90;;;;;;4804563;29;20049;-47
2023/08/07 06:51:57;;;;;;;12.90;3.72;;;15.20;99.90;;;;;;4797202;29;20054;-53
2023/08/07 06:54:23;;;;;;;17.40;3.78;;;15.40;99.90;;;;;;4788959;29;20051;-48
2023/08/07 06:56:49;;;;;;;14.80;4.50;;;15.40;99.90;;;;;;4791212;29;20693;-48
2023/08/07 06:59:15;;;;;;;13.25;3.75;;;15.30;99.90;;;;;;4789922;29;20047;-52
2023/08/07 07:01:41;;;;;;;11.40;3.97;;;15.40;99.90;;;;;;4788736;29;20051;-50
2023/08/07 07:04:07;;;;;;;16.17;2.97;;;15.40;99.90;;;;;;4788330;29;20097;-49
2023/08/07 07:06:33;;;;;;;13.82;4.18;;;15.50;99.90;;;;;;4785340;29;20030;-49
2023/08/07 07:08:59;;;;;;;13.43;3.70;;;15.40;99.90;;;;;;4786822;29;20051;-52
2023/08/07 07:11:25;;;;;;;11.65;3.45;;;15.50;99.90;;;;;;4786929;29;20140;-54
2023/08/07 07:13:52;;;;;;;15.23;4.15;;;15.50;99.90;;;;;;4787217;29;20104;-53
2023/08/07 07:16:21;;;;;;;14.88;3.92;;;15.50;99.90;;;;;;4786266;29;20051;-51
2023/08/07 07:18:49;;;;;;;12.93;3.45;;;15.50;99.90;;;;;;4787048;29;20058;-49
2023/08/07 07:21:15;;;;;;;11.77;3.60;;;15.70;99.90;;;;;;4788092;29;20031;-52
2023/08/07 07:23:43;;;;;;;13.05;3.10;;;15.70;99.90;;;;;;4785625;29;20446;-52
2023/08/07 07:26:09;;;;;;;13.23;3.50;;;15.70;99.90;;;;;;4787198;29;20188;-52
2023/08/07 07:28:35;;;;;;;10.73;3.30;;;15.80;99.90;;;;;;4785993;29;20137;-50
2023/08/07 07:31:00;;;;;;;12.65;3.38;;;15.80;99.90;;;;;;4786046;29;20410;-49
2023/08/07 07:33:27;;;;;;;11.82;3.10;;;15.70;99.90;;;;;;4786424;29;20047;-51
2023/08/07 07:35:53;;;;;;;13.10;3.33;;;15.60;99.90;;;;;;4794985;29;20055;-51
2023/08/07 07:38:19;;;;;;;9.30;2.75;;;15.50;99.90;;;;;;4795740;29;20046;-53
2023/08/07 07:40:45;;;;;;;9.80;2.47;;;15.20;99.90;;;;;;4797302;29;20058;-50
2023/08/07 07:43:11;;;;;;;7.15;2.42;;;15.20;99.90;;;;;;4794290;29;20051;-48
2023/08/07 07:45:36;;;;;;;6.18;2.20;;;15.10;99.90;;;;;;4800904;29;20484;-52
2023/08/07 07:48:08;;;;;;;8.45;2.55;;;14.80;99.90;;;;;;4800262;29;20046;-52
2023/08/07 07:50:34;;;;;;;10.77;2.92;;;14.80;99.90;;;;;;4801235;29;20507;-50
2023/08/07 07:52:59;;;;;;;11.05;3.13;;;14.70;99.90;;;;;;4800640;29;20139;-51
2023/08/07 07:55:25;;;;;;;9.93;3.17;;;14.80;99.90;;;;;;4800475;29;20055;-53
2023/08/07 07:57:51;;;;;;;9.75;3.47;;;14.80;99.90;;;;;;4799207;29;20054;-50
2023/08/07 08:00:18;;;;;;;10.00;3.20;;;15.00;99.90;;;;;;4801723;29;20039;-51
2023/08/07 08:02:43;;;;;;;13.43;4.68;;;15.30;99.90;;;;;;4801986;29;20106;-52
2023/08/07 08:05:12;;;;;;;14.45;3.75;;;15.50;99.90;;;;;;4800953;29;20046;-49
2023/08/07 08:07:39;;;;;;;9.38;2.72;;;15.40;99.90;;;;;;4798371;29;20038;-52
2023/08/07 08:10:08;;;;;;;14.55;2.90;;;15.50;99.90;;;;;;4801480;29;20427;-51
2023/08/07 08:12:35;;;;;;;10.60;3.38;;;15.60;99.90;;;;;;4799291;29;20054;-49
2023/08/07 08:15:01;;;;;;;11.68;2.72;;;15.90;99.90;;;;;;4803510;29;20710;-53
2023/08/07 08:17:27;;;;;;;12.20;2.85;;;16.00;99.90;;;;;;4800111;29;20123;-51
2023/08/07 08:19:52;;;;;;;12.75;3.00;;;16.00;99.90;;;;;;4800228;29;20042;-52
2023/08/07 08:22:18;;;;;;;13.30;3.58;;;15.90;99.90;;;;;;4797240;29;20452;-50
2023/08/07 08:24:44;;;;;;;12.55;3.45;;;15.70;99.90;;;;;;4802661;29;20047;-49
2023/08/07 08:27:10;;;;;;;11.10;3.33;;;15.60;99.90;;;;;;4802846;29;20065;-51
2023/08/07 08:29:36;;;;;;;14.27;3.15;;;15.50;99.90;;;;;;4800961;29;20398;-53
2023/08/07 08:32:01;;;;;;;12.70;3.38;;;15.40;99.90;;;;;;4800986;29;20046;-50
2023/08/07 08:34:27;;;;;;;10.20;3.20;;;15.10;99.90;;;;;;4800358;29;20539;-51
2023/08/07 08:36:53;;;;;;;11.25;3.17;;;15.20;99.90;;;;;;4800370;29;20086;-51
2023/08/07 08:39:19;;;;;;;12.45;3.53;;;15.30;99.90;;;;;;4799651;29;20109;-53
2023/08/07 08:41:49;;;;;;;11.40;3.40;;;15.50;99.90;;;;;;4798766;29;20138;-53
2023/08/07 08:44:19;;;;;;;10.50;3.33;;;15.60;99.90;;;;;;4800908;29;20066;-51
2023/08/07 08:46:49;;;;;;;12.10;4.18;;;15.80;99.90;;;;;;4815996;29;20053;-51
2023/08/07 08:49:22;;;;;;;12.27;4.25;;;16.10;99.90;;;;;;4800602;29;20088;-51
2023/08/07 08:51:48;;;;;;;14.93;3.53;;;16.10;99.90;;;;;;4800664;29;20097;-51
2023/08/07 08:54:15;;;;;;;12.38;3.38;;;16.10;99.90;;;;;;4800824;29;20047;-51
2023/08/07 08:56:41;;;;;;;13.65;3.78;;;16.20;99.90;;;;;;4802172;29;20051;-49
2023/08/07 08:59:07;;;;;;;8.48;2.80;;;16.10;99.90;;;;;;4801421;29;20043;-52
2023/08/07 09:01:33;;;;;;;8.85;2.50;;;16.20;99.90;;;;;;4804639;29;20060;-51
2023/08/07 09:03:59;;;;;;;11.68;2.63;;;16.30;99.90;;;;;;4803362;29;20104;-51
2023/08/07 09:06:27;;;;;;;9.15;2.90;;;16.30;99.90;;;;;;4802824;29;20487;-51
2023/08/07 09:08:55;;;;;;;12.35;3.15;;;16.30;99.90;;;;;;4804129;29;20427;-50
2023/08/07 09:11:20;;;;;;;14.43;2.30;;;16.50;99.90;;;;;;4803674;29;20063;-49
2023/08/07 09:13:48;;;;;;;6.38;1.80;;;16.80;99.90;;;;;;4801839;29;20050;-49
2023/08/07 09:16:16;;;;;;;9.10;2.38;;;16.90;99.90;;;;;;4803027;29;20050;-51
2023/08/07 09:18:42;;;;;;;13.38;3.05;;;17.00;99.90;;;;;;4806328;29;20046;-49
2023/08/07 09:21:08;;;;;;;9.30;2.03;;;16.90;99.90;;;;;;4806372;29;20070;-51
2023/08/07 09:23:34;;;;;;;10.18;2.03;;;16.80;99.90;;;;;;4806688;29;20333;-51
2023/08/07 09:26:04;;;;;;;11.73;2.67;;;16.80;99.90;;;;;;4804977;29;20244;-49
2023/08/07 09:28:31;;;;;;;10.23;2.78;;;16.90;99.90;;;;;;4803901;29;20114;-53
2023/08/07 09:30:58;;;;;;;10.20;2.58;;;17.00;99.90;;;;;;4806194;29;21421;-48
2023/08/07 09:33:30;;;;;;;10.02;2.08;;;17.10;99.90;;;;;;4806365;29;20895;-49
2023/08/07 09:36:00;;;;;;;8.23;2.45;;;17.20;99.90;;;;;;4805508;29;20042;-50
2023/08/07 09:38:30;;;;;;;5.85;2.08;;;17.30;99.90;;;;;;4806067;29;20392;-54
2023/08/07 09:41:06;;;;;;;6.13;1.90;;;17.50;99.90;;;;;;4806115;29;20110;-50
2023/08/07 09:43:36;;;;;;;9.32;2.75;;;17.60;99.90;;;;;;4804427;29;20059;-52
2023/08/07 09:46:06;;;;;;;8.00;2.22;;;17.60;99.90;;;;;;4806313;29;20157;-51
2023/08/07 09:48:38;;;;;;;10.43;2.53;;;17.40;99.90;;;;;;4805890;29;20043;-50
2023/08/07 09:51:04;;;;;;;10.25;3.05;;;17.20;99.90;;;;;;4806026;29;20050;-49
2023/08/07 09:53:30;;;;;;;8.63;2.67;;;16.90;99.90;;;;;;4804565;29;20046;-51
2023/08/07 09:55:56;;;;;;;10.82;2.83;;;16.80;99.90;;;;;;4805371;29;20038;-48
2023/08/07 09:58:23;;;;;;;14.50;2.72;;;16.60;99.90;;;;;;4804924;29;20045;-51
2023/08/07 10:00:50;;;;;;;8.55;2.58;;;16.40;99.90;;;;;;4805559;29;20046;-49
2023/08/07 10:03:17;;;;;;;10.50;2.60;;;16.40;99.90;;;;;;4805740;29;20050;-49
2023/08/07 10:05:43;;;;;;;8.85;2.90;;;16.40;99.90;;;;;;4805289;29;20130;-55
2023/08/07 10:08:10;;;;;;;16.00;3.35;;;16.40;99.90;;;;;;4803361;29;20476;-51
2023/08/07 10:10:38;;;;;;;11.52;2.53;;;16.50;99.90;;;;;;4805403;29;20062;-52
2023/08/07 10:13:04;;;;;;;10.40;2.42;;;16.60;99.90;;;;;;4804365;29;20046;-51
2023/08/07 10:15:31;;;;;;;7.65;2.38;;;16.80;99.90;;;;;;4804456;29;20510;-50
2023/08/07 10:17:57;;;;;;;9.55;2.65;;;17.20;99.90;;;;;;4804056;29;20092;-52
2023/08/07 10:20:26;;;;;;;7.93;2.53;;;17.40;99.90;;;;;;4805348;29;20082;-48
2023/08/07 10:22:52;;;;;;;8.15;2.55;;;17.40;99.90;;;;;;4805380;29;20075;-50
2023/08/07 10:25:23;;;;;;;10.65;2.60;;;17.40;99.90;;;;;;4805422;29;20051;-49
2023/08/07 10:27:52;;;;;;;9.75;2.47;;;17.40;99.90;;;;;;4805238;29;20103;-50
2023/08/07 10:30:20;;;;;;;6.95;2.50;;;17.50;99.90;;;;;;4804072;29;20043;-51
2023/08/07 10:32:46;;;;;;;10.20;2.38;;;17.80;99.90;;;;;;4805130;29;20182;-53
2023/08/07 10:35:31;;;;;;;11.90;2.30;;;18.00;99.90;;;;;;4804766;29;20065;-50
2023/08/07 10:38:09;;;;;;;9.30;2.20;;;17.90;99.90;;;;;;4805202;29;20047;-49
2023/08/07 10:41:08;;;;;;;8.35;2.28;;;17.70;99.90;;;;;;4805181;29;20055;-51
2023/08/07 10:43:38;;;;;;;8.45;2.70;;;17.60;99.90;;;;;;4817648;29;20051;-51
2023/08/07 10:46:16;;;;;;;7.97;2.30;;;17.50;99.90;;;;;;4804566;29;20096;-48
2023/08/07 10:48:45;;;;;;;9.57;2.50;;;17.40;99.90;;;;;;4804963;29;20058;-50
2023/08/07 10:51:15;;;;;;;8.52;2.13;;;17.50;99.90;;;;;;4804295;29;20042;-52
2023/08/07 10:53:43;;;;;;;7.65;2.08;;;17.70;99.90;;;;;;4804483;29;20039;-50
2023/08/07 10:56:11;;;;;;;11.15;2.78;;;17.90;99.90;;;;;;4797929;29;20624;-48
2023/08/07 10:58:38;;;;;;;7.85;2.25;;;18.00;99.90;;;;;;4798555;29;20047;-53
2023/08/07 11:01:29;;;;;;;6.60;2.38;;;18.10;99.90;;;;;;4802665;29;20043;-53
2023/08/07 11:03:59;;;;;;;9.88;2.58;;;18.00;99.90;;;;;;4801467;29;20042;-49
2023/08/07 11:06:33;;;;;;;8.73;2.22;;;18.00;99.90;;;;;;4801198;29;20035;-54
2023/08/07 11:08:59;;;;;;;7.90;2.47;;;17.90;99.90;;;;;;4802207;29;20134;-51
2023/08/07 11:11:27;;;;;;;6.82;2.40;;;18.00;99.90;;;;;;4802408;29;20054;-51
2023/08/07 11:13:53;;;;;;;9.20;2.20;;;18.00;99.90;;;;;;4802413;29;20042;-50
2023/08/07 11:16:22;;;;;;;7.40;2.15;;;18.30;99.90;;;;;;4801836;29;20050;-48
2023/08/07 11:18:49;;;;;;;8.05;2.20;;;18.50;99.90;;;;;;4802292;29;20441;-51
2023/08/07 11:21:15;;;;;;;5.93;1.85;;;18.70;99.90;;;;;;4801059;29;20126;-50
2023/08/07 11:23:41;;;;;;;7.50;2.08;;;18.90;99.90;;;;;;4802461;29;20126;-52
2023/08/07 11:26:09;;;;;;;6.47;1.80;;;19.10;99.90;;;;;;4800462;29;20034;-53
2023/08/07 11:28:34;;;;;;;9.10;2.25;;;19.00;99.90;;;;;;4801005;29;20117;-52
2023/08/07 11:31:01;;;;;;;6.15;2.03;;;18.90;99.90;;;;;;4801930;29;20129;-52
2023/08/07 11:33:27;;;;;;;6.35;2.03;;;18.80;99.90;;;;;;4801410;29;20045;-50
2023/08/07 11:35:54;;;;;;;10.07;1.70;;;18.80;99.90;;;;;;4801645;29;20086;-53
2023/08/07 11:38:39;;;;;;;5.97;1.90;;;18.80;99.90;;;;;;4801924;29;20043;-54
2023/08/07 11:41:06;;;;;;;7.63;2.05;;;18.80;99.90;;;;;;4802011;29;20042;-51
2023/08/07 11:43:33;;;;;;;9.70;2.40;;;18.80;99.90;;;;;;4802240;29;20058;-51
2023/08/07 11:46:01;;;;;;;9.80;1.90;;;18.90;99.90;;;;;;4801927;29;20045;-51
2023/08/07 11:48:28;;;;;;;6.57;1.70;;;19.00;99.90;;;;;;4801399;29;20103;-52
2023/08/07 11:50:55;;;;;;;8.90;2.30;;;18.90;99.90;;;;;;4802339;29;20611;-52
2023/08/07 11:53:22;;;;;;;6.05;1.70;;;19.10;99.90;;;;;;4802258;29;20043;-52
2023/08/07 11:55:55;;;;;;;6.53;2.00;;;19.20;99.90;;;;;;4800954;29;20133;-52
2023/08/07 11:58:22;;;;;;;4.75;1.65;;;19.30;99.90;;;;;;4802234;29;20050;-51
2023/08/07 12:00:48;;;;;;;8.52;1.90;;;19.30;99.90;;;;;;4802033;29;20065;-52
2023/08/07 12:03:28;;;;;;;5.50;1.73;;;19.40;99.90;;;;;;4801590;29;20046;-52
2023/08/07 12:05:59;;;;;;;5.25;1.60;;;19.50;99.90;;;;;;4801558;29;20107;-50
2023/08/07 12:08:30;;;;;;;6.63;1.50;;;19.50;99.90;;;;;;4815792;29;20046;-52
2023/08/07 12:10:56;;;;;;;6.03;1.85;;;19.60;99.90;;;;;;4814779;29;20051;-53
2023/08/07 12:13:27;;;;;;;5.40;1.52;;;19.60;99.90;;;;;;4802110;29;20043;-49
2023/08/07 12:15:56;;;;;;;5.45;1.70;;;19.60;99.90;;;;;;4801495;29;20046;-51
2023/08/07 12:18:23;;;;;;;8.70;1.88;;;19.40;99.90;;;;;;4800506;29;20038;-52
2023/08/07 12:20:51;;;;;;;6.85;1.90;;;19.30;99.90;;;;;;4800282;29;20365;-54
2023/08/07 12:23:17;;;;;;;6.78;1.75;;;19.10;99.90;;;;;;4802587;29;20055;-53
2023/08/07 12:25:44;;;;;;;7.95;1.65;;;19.10;99.90;;;;;;4802705;29;20039;-51
2023/08/07 12:28:10;;;;;;;5.97;1.73;;;19.10;99.90;;;;;;4802597;29;20069;-49
2023/08/07 12:30:37;;;;;;;5.40;1.80;;;19.30;99.90;;;;;;4802734;29;20503;-53
2023/08/07 12:33:04;;;;;;;7.05;1.90;;;19.20;99.90;;;;;;4803087;29;20117;-53
2023/08/07 12:35:34;;;;;;;6.93;2.03;;;19.20;99.90;;;;;;4804788;29;20483;-53
2023/08/07 12:38:01;;;;;;;9.40;1.80;;;19.30;99.90;;;;;;4804886;29;20051;-53
2023/08/07 12:40:27;;;;;;;9.73;2.40;;;19.60;99.90;;;;;;4805956;29;20043;-53